createdAt,value
2022-09-28T00:01:15.960Z,10.43
2022-09-28T00:03:43.853Z,10.39
2022-09-28T00:06:14.340Z,10.31
2022-09-28T00:08:41.939Z,10.29
2022-09-28T00:11:13.700Z,10.25
2022-09-28T00:13:42.794Z,10.29
2022-09-28T00:16:14.083Z,10.19
2022-09-28T00:18:41.949Z,10.13
2022-09-28T00:21:12.308Z,10.06
2022-09-28T00:24:00.577Z,9.98
2022-09-28T00:26:31.007Z,10.01
2022-09-28T00:29:00.804Z,10.04
2022-09-28T00:31:31.653Z,9.94
2022-09-28T00:34:00.618Z,9.90
2022-09-28T00:36:29.195Z,10.08
2022-09-28T00:38:57.343Z,10.09
2022-09-28T00:41:26.273Z,10.10
2022-09-28T00:44:33.563Z,10.16
2022-09-28T00:47:05.075Z,10.12
2022-09-28T00:49:40.663Z,10.03
2022-09-28T00:52:11.901Z,9.98
2022-09-28T00:54:40.407Z,10.08
2022-09-28T00:57:08.052Z,10.19
2022-09-28T00:59:37.002Z,10.27
2022-09-28T01:02:04.861Z,10.10
2022-09-28T01:04:32.923Z,10.12
2022-09-28T01:07:01.466Z,10.02
2022-09-28T01:09:31.355Z,10.06
2022-09-28T01:11:58.979Z,9.98
2022-09-28T01:14:26.906Z,10.03
2022-09-28T01:17:05.661Z,10.10
2022-09-28T01:19:59.697Z,10.11
2022-09-28T01:22:53.006Z,10.05
2022-09-28T01:25:34.183Z,10.21
2022-09-28T01:28:06.922Z,10.26
2022-09-28T01:30:42.226Z,10.16
2022-09-28T01:33:14.318Z,10.23
2022-09-28T01:35:48.612Z,10.15
2022-09-28T01:38:20.405Z,10.20
2022-09-28T01:40:50.081Z,10.25
2022-09-28T01:43:23.823Z,10.10
2022-09-28T01:45:55.872Z,9.98
2022-09-28T01:48:30.346Z,10.01
2022-09-28T01:51:02.924Z,10.09
2022-09-28T01:53:37.868Z,10.19
2022-09-28T01:56:10.005Z,10.25
2022-09-28T01:58:45.009Z,10.27
2022-09-28T02:01:18.351Z,10.52
2022-09-28T02:03:52.056Z,10.54
2022-09-28T02:06:26.642Z,10.50
2022-09-28T02:08:58.125Z,10.60
2022-09-28T02:11:26.079Z,10.46
2022-09-28T02:14:00.388Z,10.41
2022-09-28T02:16:35.650Z,10.48
2022-09-28T02:19:04.900Z,10.47
2022-09-28T02:21:38.159Z,10.42
2022-09-28T02:24:21.633Z,10.39
2022-09-28T02:26:52.180Z,10.52
2022-09-28T02:29:21.175Z,10.54
2022-09-28T02:31:48.766Z,10.37
2022-09-28T02:34:16.418Z,10.12
2022-09-28T02:36:45.585Z,10.11
2022-09-28T02:39:15.188Z,10.03
2022-09-28T02:41:56.401Z,10.09
2022-09-28T02:44:50.488Z,10.11
2022-09-28T02:47:28.122Z,10.13
2022-09-28T02:50:04.686Z,10.17
2022-09-28T02:52:54.668Z,10.15
2022-09-28T02:55:37.452Z,10.24
2022-09-28T02:58:20.425Z,10.21
2022-09-28T03:00:58.468Z,10.09
2022-09-28T03:03:35.375Z,9.99
2022-09-28T03:06:08.698Z,10.01
2022-09-28T03:08:40.763Z,9.96
2022-09-28T03:11:13.807Z,9.96
2022-09-28T03:13:42.486Z,9.99
2022-09-28T03:16:14.235Z,10.01
2022-09-28T03:18:42.069Z,9.95
2022-09-28T03:21:12.341Z,9.99
2022-09-28T03:23:40.376Z,10.06
2022-09-28T03:26:08.651Z,9.99
2022-09-28T03:28:36.793Z,10.02
2022-09-28T03:31:04.467Z,10.08
2022-09-28T03:33:33.485Z,9.89
2022-09-28T03:36:01.285Z,9.95
2022-09-28T03:38:31.253Z,9.90
2022-09-28T03:41:00.418Z,9.87
2022-09-28T03:43:29.043Z,9.83
2022-09-28T03:45:58.317Z,9.96
2022-09-28T03:48:31.927Z,9.93
2022-09-28T03:51:02.742Z,9.98
2022-09-28T03:53:30.585Z,9.93
2022-09-28T03:56:03.781Z,9.93
2022-09-28T03:58:31.352Z,10.03
2022-09-28T04:01:03.490Z,9.98
2022-09-28T04:03:31.293Z,9.97
2022-09-28T04:05:59.361Z,10.00
2022-09-28T04:08:28.629Z,10.13
2022-09-28T04:10:57.486Z,10.14
2022-09-28T04:13:25.432Z,10.10
2022-09-28T04:15:54.576Z,10.03
2022-09-28T04:18:22.710Z,10.03
2022-09-28T04:20:59.409Z,10.07
2022-09-28T04:23:28.675Z,10.12
2022-09-28T04:25:56.319Z,10.05
2022-09-28T04:28:41.428Z,9.95
2022-09-28T04:31:11.164Z,9.92
2022-09-28T04:33:40.488Z,9.95
2022-09-28T04:36:09.362Z,9.99
2022-09-28T04:38:52.302Z,10.05
2022-09-28T04:41:22.131Z,10.06
2022-09-28T04:43:49.699Z,10.11
2022-09-28T04:46:18.785Z,10.12
2022-09-28T04:48:46.555Z,10.07
2022-09-28T04:51:14.501Z,10.05
2022-09-28T04:53:45.860Z,10.18
2022-09-28T04:56:16.509Z,10.16
2022-09-28T04:58:47.916Z,10.25
2022-09-28T05:01:23.416Z,10.20
2022-09-28T05:03:51.882Z,10.18
2022-09-28T05:06:19.545Z,10.22
2022-09-28T05:08:48.622Z,10.12
2022-09-28T05:11:16.383Z,10.06
2022-09-28T05:13:45.739Z,10.05
2022-09-28T05:16:15.795Z,9.99
2022-09-28T05:18:43.906Z,10.07
2022-09-28T05:21:12.729Z,10.10
2022-09-28T05:23:40.414Z,10.21
2022-09-28T05:26:10.789Z,10.13
2022-09-28T05:28:39.728Z,10.20
2022-09-28T05:31:07.709Z,10.06
2022-09-28T05:33:36.261Z,10.11
2022-09-28T05:36:05.133Z,10.01
2022-09-28T05:38:32.738Z,9.98
2022-09-28T05:41:04.431Z,9.95
2022-09-28T05:43:36.494Z,9.92
2022-09-28T05:46:04.193Z,9.89
2022-09-28T05:48:32.193Z,9.72
2022-09-28T05:50:59.953Z,9.74
2022-09-28T05:53:27.521Z,9.84
2022-09-28T05:55:59.175Z,9.94
2022-09-28T05:58:26.910Z,9.97
2022-09-28T06:00:57.214Z,9.95
2022-09-28T06:03:25.526Z,9.98
2022-09-28T06:05:53.710Z,10.01
2022-09-28T06:08:21.561Z,10.04
2022-09-28T06:10:49.193Z,9.99
2022-09-28T06:13:16.837Z,9.89
2022-09-28T06:15:44.767Z,9.81
2022-09-28T06:18:15.112Z,9.79
2022-09-28T06:20:43.237Z,9.94
2022-09-28T06:23:11.830Z,10.05
2022-09-28T06:25:39.459Z,10.18
2022-09-28T06:28:10.109Z,10.42
2022-09-28T06:30:40.407Z,10.48
2022-09-28T06:33:10.793Z,10.46
2022-09-28T06:35:40.805Z,10.48
2022-09-28T06:38:08.524Z,10.66
2022-09-28T06:40:36.956Z,11.30
2022-09-28T06:43:10.169Z,11.40
2022-09-28T06:45:39.015Z,11.45
2022-09-28T06:48:07.704Z,11.29
2022-09-28T06:50:38.439Z,11.23
2022-09-28T06:53:09.463Z,11.17
2022-09-28T06:55:40.123Z,10.96
2022-09-28T06:58:10.665Z,10.89
2022-09-28T07:00:39.394Z,10.97
2022-09-28T07:03:08.560Z,11.25
2022-09-28T07:05:37.667Z,11.19
2022-09-28T07:08:06.994Z,11.21
2022-09-28T07:10:34.825Z,11.33
2022-09-28T07:13:04.755Z,11.31
2022-09-28T07:15:32.997Z,11.37
2022-09-28T07:18:04.377Z,12.39
2022-09-28T07:20:34.692Z,12.68
2022-09-28T07:23:18.590Z,13.53
2022-09-28T07:25:48.731Z,15.02
2022-09-28T07:28:17.526Z,16.39
2022-09-28T07:30:45.402Z,16.62
2022-09-28T07:33:15.849Z,15.96
2022-09-28T07:35:50.675Z,15.80
2022-09-28T07:38:19.852Z,15.51
2022-09-28T07:41:05.506Z,15.20
2022-09-28T07:43:33.744Z,15.00
2022-09-28T07:46:01.463Z,14.63
2022-09-28T07:48:36.699Z,14.54
2022-09-28T07:51:04.638Z,14.24
2022-09-28T07:53:33.653Z,13.87
2022-09-28T07:56:07.281Z,13.71
2022-09-28T07:58:35.948Z,13.82
2022-09-28T08:01:06.452Z,13.86
2022-09-28T08:03:34.885Z,13.45
2022-09-28T08:06:05.845Z,13.24
2022-09-28T08:08:35.723Z,14.40
2022-09-28T08:11:04.009Z,15.67
2022-09-28T08:13:31.612Z,16.34
2022-09-28T08:16:02.217Z,16.36
2022-09-28T08:18:30.712Z,16.25
2022-09-28T08:21:16.203Z,16.37
2022-09-28T08:23:45.134Z,16.77
2022-09-28T08:26:15.615Z,16.59
2022-09-28T08:28:45.133Z,17.31
2022-09-28T08:31:12.884Z,17.53
2022-09-28T08:33:42.010Z,16.99
2022-09-28T08:36:11.269Z,17.13
2022-09-28T08:38:38.892Z,16.56
2022-09-28T08:41:17.846Z,16.01
2022-09-28T08:44:09.223Z,15.67
2022-09-28T08:46:39.806Z,15.71
2022-09-28T08:49:24.938Z,15.68
2022-09-28T08:52:00.018Z,15.78
2022-09-28T08:54:37.617Z,15.84
2022-09-28T08:57:13.552Z,15.50
2022-09-28T08:59:51.420Z,14.62
2022-09-28T09:02:25.384Z,14.94
2022-09-28T09:04:53.867Z,14.86
2022-09-28T09:07:57.143Z,14.50
2022-09-28T09:10:44.127Z,14.46
2022-09-28T09:13:36.801Z,14.26
2022-09-28T09:16:15.241Z,14.52
2022-09-28T09:18:49.434Z,14.47
2022-09-28T09:21:30.621Z,13.78
2022-09-28T09:24:08.201Z,13.76
2022-09-28T09:26:39.197Z,13.83
2022-09-28T09:29:22.169Z,13.59
2022-09-28T09:32:04.272Z,13.53
2022-09-28T09:34:44.719Z,13.73
2022-09-28T09:37:27.549Z,13.67
2022-09-28T09:40:17.884Z,13.79
2022-09-28T09:42:58.103Z,14.12
2022-09-28T09:45:36.876Z,13.93
2022-09-28T09:48:09.847Z,14.79
2022-09-28T09:50:46.738Z,15.03
2022-09-28T09:53:21.123Z,14.73
2022-09-28T09:55:54.797Z,14.50
2022-09-28T09:58:28.045Z,14.10
2022-09-28T10:01:03.228Z,14.13
2022-09-28T10:03:34.154Z,14.03
2022-09-28T10:06:06.753Z,14.08
2022-09-28T10:08:40.773Z,14.08
2022-09-28T10:11:13.118Z,13.97
2022-09-28T10:13:41.047Z,14.00
2022-09-28T10:16:10.809Z,13.96
2022-09-28T10:18:38.867Z,13.88
2022-09-28T10:21:06.857Z,13.98
2022-09-28T10:23:37.689Z,14.36
2022-09-28T10:26:13.421Z,14.63
2022-09-28T10:28:46.301Z,14.43
2022-09-28T10:31:39.457Z,14.73
2022-09-28T10:34:08.778Z,14.67
2022-09-28T10:36:49.413Z,14.49
2022-09-28T10:39:28.711Z,14.52
2022-09-28T10:41:56.654Z,14.30
2022-09-28T10:44:24.423Z,14.67
2022-09-28T10:47:00.379Z,15.26
2022-09-28T10:49:28.944Z,15.15
2022-09-28T10:51:57.237Z,15.12
2022-09-28T10:54:30.330Z,15.41
2022-09-28T10:56:59.771Z,15.33
2022-09-28T10:59:39.543Z,15.68
2022-09-28T11:02:21.885Z,16.05
2022-09-28T11:04:55.120Z,15.87
2022-09-28T11:07:26.791Z,15.51
2022-09-28T11:09:56.198Z,15.82
2022-09-28T11:12:26.746Z,15.73
2022-09-28T11:15:01.557Z,15.53
2022-09-28T11:17:32.795Z,15.12
2022-09-28T11:20:02.515Z,15.35
2022-09-28T11:22:41.715Z,15.21
2022-09-28T11:25:22.225Z,15.56
2022-09-28T11:28:01.740Z,15.49
2022-09-28T11:30:33.539Z,15.94
2022-09-28T11:33:09.184Z,15.79
2022-09-28T11:35:46.599Z,15.59
2022-09-28T11:38:40.480Z,16.01
2022-09-28T11:41:26.033Z,15.57
2022-09-28T11:44:23.927Z,15.28
2022-09-28T11:47:04.352Z,15.55
2022-09-28T11:49:39.960Z,15.73
2022-09-28T11:52:17.511Z,15.53
2022-09-28T11:54:51.720Z,15.80
2022-09-28T11:57:25.079Z,15.69
2022-09-28T11:59:59.262Z,15.91
2022-09-28T12:02:31.350Z,15.95
2022-09-28T12:05:14.917Z,16.07
2022-09-28T12:07:49.381Z,15.76
2022-09-28T12:10:27.771Z,15.83
2022-09-28T12:13:02.337Z,15.12
2022-09-28T12:16:16.826Z,15.60
2022-09-28T12:18:44.924Z,16.03
2022-09-28T12:21:35.712Z,16.37
2022-09-28T12:24:14.188Z,16.34
2022-09-28T12:26:48.292Z,16.41
2022-09-28T12:29:21.804Z,15.91
2022-09-28T12:31:59.388Z,15.64
2022-09-28T12:34:27.102Z,15.56
2022-09-28T12:37:09.214Z,15.75
2022-09-28T12:39:58.612Z,15.83
2022-09-28T12:42:42.324Z,15.17
2022-09-28T12:45:27.657Z,15.20
2022-09-28T12:48:14.553Z,15.13
2022-09-28T12:50:56.688Z,15.01
2022-09-28T12:53:47.459Z,15.08
2022-09-28T12:56:27.125Z,14.91
2022-09-28T12:59:09.199Z,14.62
2022-09-28T13:02:02.376Z,14.45
2022-09-28T13:04:57.978Z,14.69
2022-09-28T13:07:34.498Z,14.39
2022-09-28T13:10:18.462Z,14.46
2022-09-28T13:13:01.150Z,14.61
2022-09-28T13:15:38.713Z,14.66
2022-09-28T13:18:13.576Z,14.94
2022-09-28T13:20:51.270Z,15.06
2022-09-28T13:23:22.490Z,15.28
2022-09-28T13:25:56.103Z,15.58
2022-09-28T13:28:27.242Z,15.01
2022-09-28T13:33:34.982Z,15.18
2022-09-28T13:36:05.555Z,15.25
2022-09-28T13:38:55.125Z,15.19
2022-09-28T13:41:31.533Z,15.10
2022-09-28T13:44:27.456Z,15.17
2022-09-28T13:47:22.988Z,14.89
2022-09-28T13:50:04.635Z,14.85
2022-09-28T13:52:44.894Z,14.97
2022-09-28T13:55:29.861Z,14.71
2022-09-28T13:58:04.450Z,14.61
2022-09-28T14:00:38.913Z,14.91
2022-09-28T14:03:14.936Z,15.03
2022-09-28T14:05:47.925Z,15.13
2022-09-28T14:08:33.547Z,15.16
2022-09-28T14:11:26.395Z,15.13
2022-09-28T14:14:02.987Z,15.19
2022-09-28T14:16:32.566Z,14.88
2022-09-28T14:19:04.618Z,14.80
2022-09-28T14:21:58.036Z,14.57
2022-09-28T14:24:35.344Z,14.34
2022-09-28T14:27:21.595Z,14.23
2022-09-28T14:29:56.223Z,14.26
2022-09-28T14:32:25.592Z,14.02
2022-09-28T14:34:59.310Z,13.89
2022-09-28T14:37:47.411Z,14.03
2022-09-28T14:40:38.196Z,14.05
2022-09-28T14:43:28.768Z,14.38
2022-09-28T14:46:36.595Z,14.45
2022-09-28T14:49:06.506Z,14.70
2022-09-28T14:52:04.608Z,14.77
2022-09-28T14:54:54.376Z,14.63
2022-09-28T14:57:26.327Z,14.28
2022-09-28T14:59:56.680Z,14.38
2022-09-28T15:02:31.245Z,14.28
2022-09-28T15:05:10.314Z,14.40
2022-09-28T15:07:47.455Z,14.45
2022-09-28T15:10:27.969Z,14.22
2022-09-28T15:12:57.082Z,14.36
2022-09-28T15:15:29.443Z,14.28
2022-09-28T15:18:27.504Z,14.32
2022-09-28T15:20:55.803Z,14.59
2022-09-28T15:23:33.846Z,14.45
2022-09-28T15:26:02.430Z,14.41
2022-09-28T15:28:30.361Z,14.25
2022-09-28T15:31:02.669Z,14.24
2022-09-28T15:33:50.692Z,14.27
2022-09-28T15:36:22.326Z,14.35
2022-09-28T15:38:56.595Z,14.45
2022-09-28T15:41:25.315Z,14.48
2022-09-28T15:44:23.644Z,14.63
2022-09-28T15:46:51.990Z,14.52
2022-09-28T15:49:34.574Z,14.19
2022-09-28T15:52:08.287Z,13.95
2022-09-28T15:54:43.067Z,13.96
2022-09-28T15:57:30.280Z,13.74
2022-09-28T15:59:59.204Z,13.56
2022-09-28T16:02:27.729Z,13.44
2022-09-28T16:04:58.954Z,13.32
2022-09-28T16:07:33.197Z,13.29
2022-09-28T16:10:25.966Z,13.26
2022-09-28T16:12:56.739Z,13.25
2022-09-28T16:15:27.482Z,13.23
2022-09-28T16:17:57.390Z,13.11
2022-09-28T16:20:31.777Z,13.11
2022-09-28T16:23:05.821Z,13.18
2022-09-28T16:25:37.071Z,13.11
2022-09-28T16:28:25.217Z,13.09
2022-09-28T16:31:02.236Z,12.95
2022-09-28T16:33:32.433Z,12.94
2022-09-28T16:36:05.617Z,12.88
2022-09-28T16:38:33.197Z,12.91
2022-09-28T16:41:02.771Z,12.89
2022-09-28T16:43:34.975Z,12.89
2022-09-28T16:46:07.073Z,12.80
2022-09-28T16:48:39.425Z,12.67
2022-09-28T16:51:08.504Z,12.71
2022-09-28T16:53:54.532Z,12.63
2022-09-28T16:56:22.663Z,12.60
2022-09-28T16:58:50.736Z,12.56
2022-09-28T17:01:19.775Z,12.55
2022-09-28T17:03:49.927Z,12.45
2022-09-28T17:06:20.642Z,12.46
2022-09-28T17:08:48.367Z,12.62
2022-09-28T17:13:51.814Z,12.53
2022-09-28T17:16:32.643Z,12.56
2022-09-28T17:19:06.684Z,12.54
2022-09-28T17:21:35.583Z,12.54
2022-09-28T17:24:03.416Z,12.56
2022-09-28T17:26:33.513Z,12.58
2022-09-28T17:29:01.805Z,12.48
2022-09-28T17:31:30.028Z,12.46
2022-09-28T17:33:58.213Z,12.49
2022-09-28T17:36:27.388Z,12.45
2022-09-28T17:38:57.149Z,12.37
2022-09-28T17:41:24.780Z,12.36
2022-09-28T17:43:52.477Z,12.37
2022-09-28T17:46:28.730Z,12.37
2022-09-28T17:48:59.311Z,12.38
2022-09-28T17:51:27.765Z,12.39
2022-09-28T17:53:57.038Z,12.36
2022-09-28T17:56:27.544Z,12.35
2022-09-28T17:59:00.841Z,12.36
2022-09-28T18:01:33.590Z,12.28
2022-09-28T18:04:02.034Z,12.27
2022-09-28T18:06:29.951Z,12.25
2022-09-28T18:08:58.962Z,12.22
2022-09-28T18:11:27.161Z,12.25
2022-09-28T18:13:54.759Z,12.28
2022-09-28T18:16:22.950Z,12.31
2022-09-28T18:18:50.818Z,12.32
2022-09-28T18:21:18.545Z,12.31
2022-09-28T18:23:46.248Z,12.36
2022-09-28T18:26:16.716Z,12.29
2022-09-28T18:28:44.466Z,12.28
2022-09-28T18:31:14.904Z,12.27
2022-09-28T18:36:31.272Z,12.23
2022-09-28T18:39:00.894Z,12.21
2022-09-28T18:41:30.027Z,12.13
2022-09-28T18:44:00.650Z,12.13
2022-09-28T18:46:29.761Z,12.13
2022-09-28T18:48:57.814Z,12.14
2022-09-28T18:51:26.401Z,12.10
2022-09-28T18:53:54.112Z,12.07
2022-09-28T18:56:22.024Z,12.04
2022-09-28T18:58:52.583Z,12.01
2022-09-28T19:01:30.822Z,12.02
2022-09-28T19:04:00.253Z,11.98
2022-09-28T19:06:28.122Z,11.95
2022-09-28T19:08:56.854Z,11.83
2022-09-28T19:11:25.575Z,11.86
2022-09-28T19:13:55.902Z,11.83
2022-09-28T19:16:25.428Z,11.85
2022-09-28T19:18:53.934Z,11.87
2022-09-28T19:21:22.088Z,11.96
2022-09-28T19:23:50.180Z,11.96
2022-09-28T19:26:20.302Z,11.99
2022-09-28T19:28:48.578Z,11.99
2022-09-28T19:31:18.146Z,12.01
2022-09-28T19:33:46.407Z,11.93
2022-09-28T19:36:17.189Z,11.93
2022-09-28T19:38:45.508Z,11.87
2022-09-28T19:41:39.001Z,11.83
2022-09-28T19:44:12.997Z,11.80
2022-09-28T19:46:42.818Z,11.86
2022-09-28T19:49:12.673Z,11.88
2022-09-28T19:52:01.752Z,11.78
2022-09-28T19:54:36.136Z,11.79
2022-09-28T19:57:07.452Z,11.83
2022-09-28T19:59:36.409Z,11.70
2022-09-28T20:02:05.807Z,11.62
2022-09-28T20:04:33.371Z,11.69
2022-09-28T20:07:01.911Z,11.70
2022-09-28T20:09:29.619Z,11.66
2022-09-28T20:11:57.317Z,11.65
2022-09-28T20:14:26.502Z,11.66
2022-09-28T20:16:55.999Z,11.68
2022-09-28T20:19:25.110Z,11.62
2022-09-28T20:21:52.750Z,11.55
2022-09-28T20:24:20.399Z,11.49
2022-09-28T20:26:49.490Z,11.50
2022-09-28T20:29:17.462Z,11.53
2022-09-28T20:31:45.634Z,11.36
2022-09-28T20:34:15.033Z,11.36
2022-09-28T20:36:44.486Z,11.35
2022-09-28T20:39:12.747Z,11.35
2022-09-28T20:41:41.110Z,11.32
2022-09-28T20:44:09.840Z,11.21
2022-09-28T20:46:38.070Z,11.29
2022-09-28T20:49:07.075Z,11.30
2022-09-28T20:51:34.724Z,11.28
2022-09-28T20:54:03.801Z,11.29
2022-09-28T20:56:37.412Z,11.32
2022-09-28T20:59:05.854Z,11.28
2022-09-28T21:01:33.504Z,11.29
2022-09-28T21:04:02.974Z,11.26
2022-09-28T21:06:32.525Z,11.23
2022-09-28T21:09:00.507Z,11.21
2022-09-28T21:11:30.632Z,11.22
2022-09-28T21:14:01.608Z,11.21
2022-09-28T21:16:32.018Z,11.21
2022-09-28T21:19:00.035Z,11.24
2022-09-28T21:21:28.075Z,11.27
2022-09-28T21:23:56.482Z,11.36
2022-09-28T21:26:25.791Z,11.35
2022-09-28T21:28:55.737Z,11.29
2022-09-28T21:31:28.692Z,11.26
2022-09-28T21:33:57.256Z,11.25
2022-09-28T21:36:25.409Z,11.34
2022-09-28T21:38:53.464Z,11.27
2022-09-28T21:41:21.107Z,11.33
2022-09-28T21:43:48.665Z,11.22
2022-09-28T21:46:18.000Z,11.17
2022-09-28T21:48:45.767Z,11.14
2022-09-28T21:51:15.563Z,11.09
2022-09-28T21:53:43.617Z,11.09
2022-09-28T21:56:13.486Z,11.12
2022-09-28T21:58:41.588Z,11.07
2022-09-28T22:01:14.554Z,11.08
2022-09-28T22:03:45.119Z,11.06
2022-09-28T22:06:13.235Z,10.96
2022-09-28T22:08:41.437Z,10.98
2022-09-28T22:11:12.010Z,10.96
2022-09-28T22:13:42.221Z,10.99
2022-09-28T22:16:10.626Z,10.98
2022-09-28T22:18:38.470Z,10.95
2022-09-28T22:21:09.767Z,10.82
2022-09-28T22:23:38.577Z,10.70
2022-09-28T22:26:09.666Z,10.54
2022-09-28T22:28:38.010Z,10.35
2022-09-28T22:31:05.859Z,10.30
2022-09-28T22:33:34.061Z,10.19
2022-09-28T22:36:01.952Z,10.13
2022-09-28T22:38:32.927Z,10.13
2022-09-28T22:41:01.374Z,10.06
2022-09-28T22:43:29.079Z,10.11
2022-09-28T22:46:03.177Z,9.98
2022-09-28T22:48:30.855Z,9.91
2022-09-28T22:50:58.485Z,9.89
2022-09-28T22:53:26.101Z,9.87
2022-09-28T22:55:55.151Z,9.83
2022-09-28T22:58:23.455Z,9.74
2022-09-28T23:00:51.174Z,9.72
2022-09-28T23:03:19.094Z,9.61
2022-09-28T23:05:53.914Z,9.55
2022-09-28T23:08:22.347Z,9.52
2022-09-28T23:10:50.013Z,9.45
2022-09-28T23:13:19.760Z,9.44
2022-09-28T23:15:55.834Z,9.34
2022-09-28T23:18:23.913Z,9.32
2022-09-28T23:20:55.146Z,9.22
2022-09-28T23:23:25.956Z,9.14
2022-09-28T23:25:54.035Z,9.14
2022-09-28T23:28:24.795Z,9.14
2022-09-28T23:30:52.711Z,9.11
2022-09-28T23:33:22.449Z,9.07
2022-09-28T23:35:52.672Z,9.01
2022-09-28T23:38:20.249Z,9.03
2022-09-28T23:40:48.398Z,9.07
2022-09-28T23:43:16.097Z,8.95
2022-09-28T23:45:45.493Z,8.90
2022-09-28T23:48:14.767Z,8.92
2022-09-28T23:50:42.570Z,8.88
2022-09-28T23:53:10.733Z,8.86
2022-09-28T23:55:38.389Z,8.81
2022-09-28T23:58:06.110Z,8.75
